Aérodrome :
LOGIN :

S'inscrire | Disclaimer

   EN    FR    IT 

 










Légende :    VFR   VFR Marginal   IFR   IFR Intensif   IFR Très Intensif
Visi : 
Plafond : 
>= 8 km
>= 3000ft
5 à 8 km
1000 à 3000 ft
1500m à 5 km
500 à 1000 ft
800 à 1500m
200 à 500 ft
< 800m
< 200 ft
Symboles :   Orages  Brouillard  Fortes neiges  Fortes précipitations  Vent > 20 kt
SIGMETs :   Divers  Orages  Givrage  Turbulence  Onde Orograph.  Cendres Volcan.






- Altitude de l'aérodrome : 278 ft
- Code IATA : RJK


LDRI - Rijeka

DERNIER METAR :
  • 141330Z 10003KT 030V150 9999 FEW033 SCT050 15/07 Q1008

METARs EXPIRÉS :
  • 141230Z 06003KT 360V160 9999 FEW036 SCT052 14/05 Q1009
  • 141200Z 05003KT 9999 FEW036 SCT052 BKN066 13/05 Q1009
  • 141130Z 03004KT 9999 FEW036 SCT052 BKN066 13/05 Q1009
  • 141100Z 06005KT 360V090 9999 FEW036 SCT050 BKN066 13/05 Q1009

TAF TAF LDRI
Valide du 14 à 12h jusqu'au 15 à 12h UTC


141125Z 1412/1512 07006KT 9999 FEW030 BKN040 TX16/1511Z TN11/1421Z
PROB30
TEMPO 1417/1512 SHRA FEW030TCU BKN035
BECMG 1418/1420 12010KT



MET'MAP, la Météo Aéronautique d'un coup d'oeil ! - Copyright ORBIFLY Décembre 2007 - Disclaimer

ORBIFLY MET'MAP TEAM :

Programmation & Développement : Alexandra Zaïnal
Conception & Développement : Baudouin d'Aumeries
Co-Programmation & Développement : Marc-Olivier Méhu
Soutien technique & logistique : Manuel Goepfert

Contact : metmap@orbifly.com




SOURCES & CREDITS :

   NOAA